Hallandale Beach, Florida
Current Conditions -  °F | °C
As of 4:53 AM on Sunday 23 Nov 2014 (Local Time) from KHWO Reporting Station
Scattered Clouds Scattered Clouds  
Wind Chill: 77°   Ceiling: Unl
Heat Index: 78°   Visibility: 10mi
Dew Point: 72°   Wind: 13mph
Humidity: 84%   Direction: 120°ESE
Pressure: 30.02"   Gusts: NA
Location:  25.9859°N, 80.1469°W
Report Text: KHWO 230953Z AUTO 12011KT 10SM FEW018 SCT034 25/22 A3002 RMK AO2 SLP166 T02500222
Loading
Personal Weather Stations






























Interactive Weather Map New forecast layout! Learn more

10-Day Weather Forecast

Advertisements
Track Severe Weather on mobile